sensor_id;sensor_type;location;lat;lon;timestamp;pressure;altitude;pressure_sealevel;temperature;humidity
47366;BME280;33105;47.964;7.982;2023-07-30T00:00:19;96415.22;;;19.57;79.68
47366;BME280;33105;47.964;7.982;2023-07-30T00:03:23;96425.03;;;19.54;79.65
47366;BME280;33105;47.964;7.982;2023-07-30T00:06:25;96422.72;;;19.65;78.85
47366;BME280;33105;47.964;7.982;2023-07-30T00:09:28;96416.84;;;19.75;78.07
47366;BME280;33105;47.964;7.982;2023-07-30T00:12:31;96422.06;;;19.68;79.02
47366;BME280;33105;47.964;7.982;2023-07-30T00:15:32;96426.94;;;19.62;78.35
47366;BME280;33105;47.964;7.982;2023-07-30T00:18:34;96429.25;;;19.52;78.70
47366;BME280;33105;47.964;7.982;2023-07-30T00:21:38;96425.66;;;19.60;78.17
47366;BME280;33105;47.964;7.982;2023-07-30T00:24:39;96426.78;;;19.67;77.73
47366;BME280;33105;47.964;7.982;2023-07-30T00:27:41;96430.69;;;19.66;77.66
47366;BME280;33105;47.964;7.982;2023-07-30T00:30:46;96438.84;;;19.63;77.53
47366;BME280;33105;47.964;7.982;2023-07-30T00:33:49;96442.28;;;19.68;76.96
47366;BME280;33105;47.964;7.982;2023-07-30T00:36:50;96450.59;;;19.68;77.25
47366;BME280;33105;47.964;7.982;2023-07-30T00:39:58;96442.59;;;19.58;77.12
47366;BME280;33105;47.964;7.982;2023-07-30T00:43:00;96448.00;;;19.55;76.39
47366;BME280;33105;47.964;7.982;2023-07-30T00:46:07;96433.63;;;19.61;76.73
47366;BME280;33105;47.964;7.982;2023-07-30T00:49:10;96447.50;;;19.61;77.41
47366;BME280;33105;47.964;7.982;2023-07-30T00:52:11;96438.03;;;19.62;77.11
47366;BME280;33105;47.964;7.982;2023-07-30T00:55:13;96436.41;;;19.61;77.31
47366;BME280;33105;47.964;7.982;2023-07-30T00:58:17;96432.50;;;19.71;77.86
47366;BME280;33105;47.964;7.982;2023-07-30T01:01:19;96427.59;;;19.68;78.62
47366;BME280;33105;47.964;7.982;2023-07-30T01:04:22;96428.09;;;19.61;79.13
47366;BME280;33105;47.964;7.982;2023-07-30T01:07:23;96424.03;;;19.59;79.15
47366;BME280;33105;47.964;7.982;2023-07-30T01:10:26;96426.94;;;19.62;78.93
47366;BME280;33105;47.964;7.982;2023-07-30T01:13:30;96424.53;;;19.52;79.32
47366;BME280;33105;47.964;7.982;2023-07-30T01:16:34;96420.59;;;19.62;78.56
47366;BME280;33105;47.964;7.982;2023-07-30T01:19:36;96420.09;;;19.60;79.58
47366;BME280;33105;47.964;7.982;2023-07-30T01:22:37;96416.03;;;19.57;79.15
47366;BME280;33105;47.964;7.982;2023-07-30T01:25:41;96417.97;;;19.48;79.68
47366;BME280;33105;47.964;7.982;2023-07-30T01:28:48;96432.00;;;19.43;80.28
47366;BME280;33105;47.964;7.982;2023-07-30T01:32:04;96436.09;;;19.54;79.73
47366;BME280;33105;47.964;7.982;2023-07-30T01:35:07;96432.66;;;19.57;79.32
47366;BME280;33105;47.964;7.982;2023-07-30T01:38:10;96433.63;;;19.61;78.50
47366;BME280;33105;47.964;7.982;2023-07-30T01:41:13;96437.06;;;19.58;79.21
47366;BME280;33105;47.964;7.982;2023-07-30T01:44:15;96427.13;;;19.57;79.72
47366;BME280;33105;47.964;7.982;2023-07-30T01:47:16;96428.09;;;19.61;79.70
47366;BME280;33105;47.964;7.982;2023-07-30T01:50:18;96411.94;;;19.63;78.75
47366;BME280;33105;47.964;7.982;2023-07-30T01:53:21;96416.34;;;19.56;80.05
47366;BME280;33105;47.964;7.982;2023-07-30T01:56:23;96428.91;;;19.45;79.64
47366;BME280;33105;47.964;7.982;2023-07-30T01:59:25;96421.91;;;19.47;79.37
47366;BME280;33105;47.964;7.982;2023-07-30T02:02:27;96416.69;;;19.46;79.36
47366;BME280;33105;47.964;7.982;2023-07-30T02:05:32;96419.13;;;19.47;79.11
47366;BME280;33105;47.964;7.982;2023-07-30T02:08:33;96416.53;;;19.59;78.18
47366;BME280;33105;47.964;7.982;2023-07-30T02:11:35;96422.53;;;19.44;79.47
47366;BME280;33105;47.964;7.982;2023-07-30T02:14:37;96425.16;;;19.58;77.54
47366;BME280;33105;47.964;7.982;2023-07-30T02:17:39;96429.38;;;19.38;78.34
47366;BME280;33105;47.964;7.982;2023-07-30T02:20:41;96427.44;;;19.47;77.87
47366;BME280;33105;47.964;7.982;2023-07-30T02:23:42;96436.25;;;19.49;77.95
47366;BME280;33105;47.964;7.982;2023-07-30T02:26:45;96443.06;;;19.34;78.79
47366;BME280;33105;47.964;7.982;2023-07-30T02:29:47;96441.31;;;19.30;78.93
47366;BME280;33105;47.964;7.982;2023-07-30T02:32:49;96444.88;;;19.39;79.08
47366;BME280;33105;47.964;7.982;2023-07-30T02:35:53;96433.44;;;19.32;78.90
47366;BME280;33105;47.964;7.982;2023-07-30T02:38:54;96442.44;;;19.29;78.69
47366;BME280;33105;47.964;7.982;2023-07-30T02:41:57;96447.81;;;19.25;79.26
47366;BME280;33105;47.964;7.982;2023-07-30T02:44:58;96447.47;;;19.27;79.26
47366;BME280;33105;47.964;7.982;2023-07-30T02:48:00;96443.09;;;19.26;78.22
47366;BME280;33105;47.964;7.982;2023-07-30T02:51:02;96450.75;;;19.29;78.28
47366;BME280;33105;47.964;7.982;2023-07-30T02:54:05;96449.13;;;19.28;78.91
47366;BME280;33105;47.964;7.982;2023-07-30T02:57:06;96445.84;;;19.26;78.49
47366;BME280;33105;47.964;7.982;2023-07-30T03:00:08;96442.09;;;19.22;78.48
47366;BME280;33105;47.964;7.982;2023-07-30T03:03:10;96452.84;;;19.32;78.32
47366;BME280;33105;47.964;7.982;2023-07-30T03:06:13;96456.44;;;19.15;79.06
47366;BME280;33105;47.964;7.982;2023-07-30T03:09:17;96454.16;;;19.26;77.98
47366;BME280;33105;47.964;7.982;2023-07-30T03:12:20;96456.59;;;19.19;nan
47366;BME280;33105;47.964;7.982;2023-07-30T03:15:21;96461.00;;;19.28;78.32
47366;BME280;33105;47.964;7.982;2023-07-30T03:18:23;96460.81;;;19.33;78.48
47366;BME280;33105;47.964;7.982;2023-07-30T03:21:24;96450.41;;;19.30;78.54
47366;BME280;33105;47.964;7.982;2023-07-30T03:24:26;96455.78;;;19.18;80.17
47366;BME280;33105;47.964;7.982;2023-07-30T03:27:28;96445.84;;;19.26;78.51
47366;BME280;33105;47.964;7.982;2023-07-30T03:30:33;96458.56;;;19.27;77.98
47366;BME280;33105;47.964;7.982;2023-07-30T03:33:34;96440.97;;;19.23;78.38
47366;BME280;33105;47.964;7.982;2023-07-30T03:36:37;96447.13;;;19.11;78.94
47366;BME280;33105;47.964;7.982;2023-07-30T03:39:40;96434.72;;;18.91;80.25
47366;BME280;33105;47.964;7.982;2023-07-30T03:42:43;96433.09;;;18.90;81.12
47366;BME280;33105;47.964;7.982;2023-07-30T03:45:46;96440.41;;;18.78;80.89
47366;BME280;33105;47.964;7.982;2023-07-30T03:48:50;96434.59;;;18.48;81.26
47366;BME280;33105;47.964;7.982;2023-07-30T03:51:52;96444.78;;;18.70;80.80
47366;BME280;33105;47.964;7.982;2023-07-30T03:54:53;96442.16;;;18.65;81.38
47366;BME280;33105;47.964;7.982;2023-07-30T03:57:55;96444.75;;;18.61;80.62
47366;BME280;33105;47.964;7.982;2023-07-30T04:00:59;96450.38;;;18.48;81.57
47366;BME280;33105;47.964;7.982;2023-07-30T04:04:01;96452.50;;;18.51;83.38
47366;BME280;33105;47.964;7.982;2023-07-30T04:07:09;96456.88;;;18.43;83.66
47366;BME280;33105;47.964;7.982;2023-07-30T04:10:10;96465.53;;;18.50;81.85
47366;BME280;33105;47.964;7.982;2023-07-30T04:13:13;96457.00;;;18.69;79.15
47366;BME280;33105;47.964;7.982;2023-07-30T04:16:18;96465.84;;;18.57;79.58
47366;BME280;33105;47.964;7.982;2023-07-30T04:22:39;96473.50;;;18.52;80.73
47366;BME280;33105;47.964;7.982;2023-07-30T04:25:42;96473.97;;;18.45;81.35
47366;BME280;33105;47.964;7.982;2023-07-30T04:28:44;96477.41;;;18.51;81.57
47366;BME280;33105;47.964;7.982;2023-07-30T04:31:45;96486.56;;;18.60;81.24
47366;BME280;33105;47.964;7.982;2023-07-30T04:34:48;96479.66;;;18.80;79.42
47366;BME280;33105;47.964;7.982;2023-07-30T04:37:55;96483.25;;;18.80;79.38
47366;BME280;33105;47.964;7.982;2023-07-30T04:41:00;96483.41;;;18.92;78.15
47366;BME280;33105;47.964;7.982;2023-07-30T04:44:03;96480.16;;;18.90;79.04
47366;BME280;33105;47.964;7.982;2023-07-30T04:47:05;96487.47;;;18.86;79.15
47366;BME280;33105;47.964;7.982;2023-07-30T04:50:08;96494.66;;;18.96;79.12
47366;BME280;33105;47.964;7.982;2023-07-30T04:53:09;96493.16;;;18.81;79.23
47366;BME280;33105;47.964;7.982;2023-07-30T04:56:11;96481.16;;;18.94;78.30
47366;BME280;33105;47.964;7.982;2023-07-30T04:59:13;96490.38;;;18.81;78.25
47366;BME280;33105;47.964;7.982;2023-07-30T05:02:17;96485.47;;;18.69;80.08
47366;BME280;33105;47.964;7.982;2023-07-30T05:05:18;96495.66;;;19.09;79.89
47366;BME280;33105;47.964;7.982;2023-07-30T05:08:20;96481.22;;;19.29;79.28
47366;BME280;33105;47.964;7.982;2023-07-30T05:11:22;96488.53;;;19.33;79.03
47366;BME280;33105;47.964;7.982;2023-07-30T05:14:24;96480.72;;;19.27;77.71
47366;BME280;33105;47.964;7.982;2023-07-30T05:17:26;96487.88;;;19.36;76.55
47366;BME280;33105;47.964;7.982;2023-07-30T05:20:27;96492.13;;;19.25;78.40
47366;BME280;33105;47.964;7.982;2023-07-30T05:23:30;96494.19;;;19.11;75.45
47366;BME280;33105;47.964;7.982;2023-07-30T05:26:32;96499.88;;;19.06;76.81
47366;BME280;33105;47.964;7.982;2023-07-30T05:29:35;96509.34;;;19.05;78.88
47366;BME280;33105;47.964;7.982;2023-07-30T05:32:36;96503.97;;;19.00;79.25
47366;BME280;33105;47.964;7.982;2023-07-30T05:35:39;96513.72;;;19.06;79.67
47366;BME280;33105;47.964;7.982;2023-07-30T05:38:40;96504.22;;;18.81;79.64
47366;BME280;33105;47.964;7.982;2023-07-30T05:41:41;96514.00;;;18.87;78.72
47366;BME280;33105;47.964;7.982;2023-07-30T05:44:43;96508.38;;;19.10;75.58
47366;BME280;33105;47.964;7.982;2023-07-30T05:47:47;96510.63;;;19.08;77.02
47366;BME280;33105;47.964;7.982;2023-07-30T05:50:49;96528.38;;;18.98;79.56
47366;BME280;33105;47.964;7.982;2023-07-30T05:53:54;96512.84;;;19.45;75.13
47366;BME280;33105;47.964;7.982;2023-07-30T05:56:57;96518.03;;;19.38;77.91
47366;BME280;33105;47.964;7.982;2023-07-30T05:59:58;96518.69;;;19.44;78.13
47366;BME280;33105;47.964;7.982;2023-07-30T06:02:59;96522.28;;;19.44;75.47
47366;BME280;33105;47.964;7.982;2023-07-30T06:06:01;96524.72;;;19.28;77.26
47366;BME280;33105;47.964;7.982;2023-07-30T06:09:04;96521.81;;;19.59;72.37
47366;BME280;33105;47.964;7.982;2023-07-30T06:12:06;96531.91;;;19.55;77.21
47366;BME280;33105;47.964;7.982;2023-07-30T06:15:09;96532.25;;;19.80;77.27
47366;BME280;33105;47.964;7.982;2023-07-30T06:18:10;96535.69;;;19.94;73.64
47366;BME280;33105;47.964;7.982;2023-07-30T06:21:13;96538.25;;;20.16;74.28
47366;BME280;33105;47.964;7.982;2023-07-30T06:24:15;96545.94;;;20.28;74.88
47366;BME280;33105;47.964;7.982;2023-07-30T06:27:17;96531.41;;;20.22;71.54
47366;BME280;33105;47.964;7.982;2023-07-30T06:30:18;96552.97;;;19.91;72.98
47366;BME280;33105;47.964;7.982;2023-07-30T06:33:20;96550.34;;;19.86;71.90
47366;BME280;33105;47.964;7.982;2023-07-30T06:36:21;96557.19;;;19.80;73.04
47366;BME280;33105;47.964;7.982;2023-07-30T06:39:22;96559.66;;;19.73;71.79
47366;BME280;33105;47.964;7.982;2023-07-30T06:42:25;96558.34;;;19.53;75.14
47366;BME280;33105;47.964;7.982;2023-07-30T06:45:26;96566.81;;;19.56;75.06
47366;BME280;33105;47.964;7.982;2023-07-30T06:48:28;96566.16;;;19.51;73.62
47366;BME280;33105;47.964;7.982;2023-07-30T06:51:30;96560.31;;;19.69;72.61
47366;BME280;33105;47.964;7.982;2023-07-30T06:54:32;96565.50;;;19.62;72.63
47366;BME280;33105;47.964;7.982;2023-07-30T06:57:35;96563.41;;;19.68;75.05
47366;BME280;33105;47.964;7.982;2023-07-30T07:00:37;96564.25;;;19.77;74.51
47366;BME280;33105;47.964;7.982;2023-07-30T07:03:39;96566.34;;;19.54;73.71
47366;BME280;33105;47.964;7.982;2023-07-30T07:06:43;96571.22;;;19.66;73.51
47366;BME280;33105;47.964;7.982;2023-07-30T07:09:45;96570.44;;;19.74;72.72
47366;BME280;33105;47.964;7.982;2023-07-30T07:12:47;96567.31;;;20.10;68.73
47366;BME280;33105;47.964;7.982;2023-07-30T07:15:49;96568.78;;;20.08;69.04
47366;BME280;33105;47.964;7.982;2023-07-30T07:18:50;96576.94;;;20.13;70.31
47366;BME280;33105;47.964;7.982;2023-07-30T07:21:53;96575.16;;;19.99;72.29
47366;BME280;33105;47.964;7.982;2023-07-30T07:24:55;96571.56;;;20.16;70.35
47366;BME280;33105;47.964;7.982;2023-07-30T07:27:58;96573.47;;;20.33;71.90
47366;BME280;33105;47.964;7.982;2023-07-30T07:31:01;96580.69;;;20.89;70.19
47366;BME280;33105;47.964;7.982;2023-07-30T07:34:07;96573.88;;;21.25;68.53
47366;BME280;33105;47.964;7.982;2023-07-30T07:37:23;96579.47;;;21.08;69.04
47366;BME280;33105;47.964;7.982;2023-07-30T07:40:25;96585.00;;;21.25;67.86
47366;BME280;33105;47.964;7.982;2023-07-30T07:43:47;96576.66;;;21.16;69.07
47366;BME280;33105;47.964;7.982;2023-07-30T07:47:34;96585.66;;;20.75;70.97
47366;BME280;33105;47.964;7.982;2023-07-30T07:50:46;96584.53;;;21.05;67.58
47366;BME280;33105;47.964;7.982;2023-07-30T07:53:56;96588.88;;;20.86;64.08
47366;BME280;33105;47.964;7.982;2023-07-30T07:56:59;96593.22;;;20.57;65.07
47366;BME280;33105;47.964;7.982;2023-07-30T08:00:01;96589.50;;;20.53;65.18
47366;BME280;33105;47.964;7.982;2023-07-30T08:03:13;96596.53;;;20.97;65.41
47366;BME280;33105;47.964;7.982;2023-07-30T08:06:16;96594.09;;;20.87;65.83
47366;BME280;33105;47.964;7.982;2023-07-30T08:09:18;96589.84;;;20.90;64.53
47366;BME280;33105;47.964;7.982;2023-07-30T08:12:21;96602.50;;;20.70;64.69
47366;BME280;33105;47.964;7.982;2023-07-30T08:15:25;96603.25;;;20.88;65.86
47366;BME280;33105;47.964;7.982;2023-07-30T08:18:26;96603.66;;;21.07;64.21
47366;BME280;33105;47.964;7.982;2023-07-30T08:21:28;96592.66;;;21.28;61.86
47366;BME280;33105;47.964;7.982;2023-07-30T08:24:30;96609.03;;;21.12;64.94
47366;BME280;33105;47.964;7.982;2023-07-30T08:27:31;96598.41;;;21.23;63.18
47366;BME280;33105;47.964;7.982;2023-07-30T08:30:34;96607.38;;;21.20;63.33
47366;BME280;33105;47.964;7.982;2023-07-30T08:33:44;96616.91;;;21.48;64.57
47366;BME280;33105;47.964;7.982;2023-07-30T08:37:11;96612.81;;;21.75;64.95
47366;BME280;33105;47.964;7.982;2023-07-30T08:40:15;96617.81;;;22.11;60.97
47366;BME280;33105;47.964;7.982;2023-07-30T08:43:50;96609.78;;;21.89;59.68
47366;BME280;33105;47.964;7.982;2023-07-30T08:46:54;96618.88;;;21.77;61.15
47366;BME280;33105;47.964;7.982;2023-07-30T08:49:58;96616.53;;;21.79;61.73
47366;BME280;33105;47.964;7.982;2023-07-30T08:53:02;96622.41;;;21.27;58.75
47366;BME280;33105;47.964;7.982;2023-07-30T08:56:05;96628.16;;;21.14;59.02
47366;BME280;33105;47.964;7.982;2023-07-30T08:59:10;96624.56;;;21.22;63.52
47366;BME280;33105;47.964;7.982;2023-07-30T09:02:21;96632.25;;;21.08;62.49
47366;BME280;33105;47.964;7.982;2023-07-30T09:05:26;96629.00;;;21.05;63.83
47366;BME280;33105;47.964;7.982;2023-07-30T09:08:30;96623.75;;;21.04;60.76
47366;BME280;33105;47.964;7.982;2023-07-30T09:11:35;96649.38;;;21.27;62.86
47366;BME280;33105;47.964;7.982;2023-07-30T09:14:37;96639.56;;;21.59;61.03
47366;BME280;33105;47.964;7.982;2023-07-30T09:17:41;96644.09;;;21.72;61.00
47366;BME280;33105;47.964;7.982;2023-07-30T09:20:50;96645.84;;;21.77;63.37
47366;BME280;33105;47.964;7.982;2023-07-30T09:23:52;96658.19;;;21.88;60.21
47366;BME280;33105;47.964;7.982;2023-07-30T09:26:54;96663.47;;;22.10;61.31
47366;BME280;33105;47.964;7.982;2023-07-30T09:30:29;96664.78;;;22.33;57.66
47366;BME280;33105;47.964;7.982;2023-07-30T09:33:35;96658.38;;;22.54;61.75
47366;BME280;33105;47.964;7.982;2023-07-30T09:37:04;96657.09;;;22.51;59.39
47366;BME280;33105;47.964;7.982;2023-07-30T09:40:39;96674.41;;;22.15;60.22
47366;BME280;33105;47.964;7.982;2023-07-30T09:43:42;96666.94;;;22.49;55.69
47366;BME280;33105;47.964;7.982;2023-07-30T09:47:01;96670.22;;;22.51;59.64
47366;BME280;33105;47.964;7.982;2023-07-30T09:50:10;96655.13;;;22.52;55.11
47366;BME280;33105;47.964;7.982;2023-07-30T09:53:24;96668.03;;;22.35;57.87
47366;BME280;33105;47.964;7.982;2023-07-30T09:56:48;96669.28;;;22.59;56.34
47366;BME280;33105;47.964;7.982;2023-07-30T09:59:51;96660.00;;;22.55;54.64
47366;BME280;33105;47.964;7.982;2023-07-30T10:03:02;96662.88;;;22.25;56.30
47366;BME280;33105;47.964;7.982;2023-07-30T10:06:27;96652.91;;;22.24;53.97
47366;BME280;33105;47.964;7.982;2023-07-30T10:09:39;96659.69;;;22.35;53.60
47366;BME280;33105;47.964;7.982;2023-07-30T10:12:47;96671.44;;;22.20;52.04
47366;BME280;33105;47.964;7.982;2023-07-30T10:15:55;96670.00;;;21.85;50.17
47366;BME280;33105;47.964;7.982;2023-07-30T10:19:02;96661.59;;;22.02;52.74
47366;BME280;33105;47.964;7.982;2023-07-30T10:22:23;96678.16;;;22.19;51.54
47366;BME280;33105;47.964;7.982;2023-07-30T10:25:41;96673.47;;;22.32;51.46
47366;BME280;33105;47.964;7.982;2023-07-30T10:28:44;96680.25;;;22.43;54.56
47366;BME280;33105;47.964;7.982;2023-07-30T10:31:54;96671.75;;;22.60;56.08
47366;BME280;33105;47.964;7.982;2023-07-30T10:35:02;96676.19;;;22.94;51.70
47366;BME280;33105;47.964;7.982;2023-07-30T10:41:22;96680.22;;;22.64;52.97
47366;BME280;33105;47.964;7.982;2023-07-30T10:44:35;96668.56;;;22.50;54.67
47366;BME280;33105;47.964;7.982;2023-07-30T10:48:04;96649.75;;;23.00;53.71
47366;BME280;33105;47.964;7.982;2023-07-30T10:51:50;96669.69;;;23.02;53.91
47366;BME280;33105;47.964;7.982;2023-07-30T10:55:12;96657.53;;;22.74;50.12
47366;BME280;33105;47.964;7.982;2023-07-30T10:58:30;96658.75;;;22.85;54.77
47366;BME280;33105;47.964;7.982;2023-07-30T11:01:48;96658.56;;;23.02;51.57
47366;BME280;33105;47.964;7.982;2023-07-30T11:05:57;96661.38;;;23.15;52.70
47366;BME280;33105;47.964;7.982;2023-07-30T11:09:03;96671.66;;;22.90;50.92
47366;BME280;33105;47.964;7.982;2023-07-30T11:12:21;96677.66;;;22.80;50.93
47366;BME280;33105;47.964;7.982;2023-07-30T11:15:49;96675.56;;;22.35;51.54
47366;BME280;33105;47.964;7.982;2023-07-30T11:19:08;96677.13;;;21.73;51.98
47366;BME280;33105;47.964;7.982;2023-07-30T11:22:10;96664.66;;;21.50;55.01
47366;BME280;33105;47.964;7.982;2023-07-30T11:25:17;96659.81;;;21.30;55.92
47366;BME280;33105;47.964;7.982;2023-07-30T11:28:38;96658.03;;;21.63;57.36
47366;BME280;33105;47.964;7.982;2023-07-30T11:31:41;96654.72;;;21.70;55.17
47366;BME280;33105;47.964;7.982;2023-07-30T11:34:44;96652.44;;;21.34;55.10
47366;BME280;33105;47.964;7.982;2023-07-30T11:37:46;96649.31;;;21.73;56.01
47366;BME280;33105;47.964;7.982;2023-07-30T11:40:51;96652.81;;;22.12;53.75
47366;BME280;33105;47.964;7.982;2023-07-30T11:43:59;96679.84;;;22.32;52.14
47366;BME280;33105;47.964;7.982;2023-07-30T11:47:04;96677.47;;;22.22;51.84
47366;BME280;33105;47.964;7.982;2023-07-30T11:50:08;96667.50;;;22.21;51.83
47366;BME280;33105;47.964;7.982;2023-07-30T11:53:10;96671.16;;;22.13;52.88
47366;BME280;33105;47.964;7.982;2023-07-30T11:56:19;96680.78;;;21.86;52.72
47366;BME280;33105;47.964;7.982;2023-07-30T11:59:22;96672.44;;;21.86;57.01
47366;BME280;33105;47.964;7.982;2023-07-30T12:02:27;96675.44;;;22.31;55.25
47366;BME280;33105;47.964;7.982;2023-07-30T12:05:34;96681.75;;;22.40;54.64
47366;BME280;33105;47.964;7.982;2023-07-30T12:08:40;96681.59;;;22.16;54.18
47366;BME280;33105;47.964;7.982;2023-07-30T12:17:50;96672.84;;;21.76;57.13
47366;BME280;33105;47.964;7.982;2023-07-30T12:20:54;96666.41;;;22.14;52.97
47366;BME280;33105;47.964;7.982;2023-07-30T12:23:56;96666.94;;;22.49;54.03
47366;BME280;33105;47.964;7.982;2023-07-30T12:27:01;96679.31;;;22.39;53.80
47366;BME280;33105;47.964;7.982;2023-07-30T12:30:09;96660.59;;;21.98;57.29
47366;BME280;33105;47.964;7.982;2023-07-30T12:33:10;96675.31;;;22.49;56.96
47366;BME280;33105;47.964;7.982;2023-07-30T12:36:11;96666.84;;;22.78;53.81
47366;BME280;33105;47.964;7.982;2023-07-30T12:39:14;96669.81;;;22.94;52.77
47366;BME280;33105;47.964;7.982;2023-07-30T12:42:23;96680.28;;;22.97;55.80
47366;BME280;33105;47.964;7.982;2023-07-30T12:45:50;96673.50;;;23.43;52.10
47366;BME280;33105;47.964;7.982;2023-07-30T12:49:47;96668.78;;;23.56;50.30
47366;BME280;33105;47.964;7.982;2023-07-30T12:53:36;96686.38;;;23.35;51.62
47366;BME280;33105;47.964;7.982;2023-07-30T12:57:03;96674.22;;;23.52;51.36
47366;BME280;33105;47.964;7.982;2023-07-30T13:01:05;96689.81;;;23.53;52.34
47366;BME280;33105;47.964;7.982;2023-07-30T13:04:33;96696.41;;;22.70;50.74
47366;BME280;33105;47.964;7.982;2023-07-30T13:07:48;96695.66;;;23.15;52.95
47366;BME280;33105;47.964;7.982;2023-07-30T13:16:34;96712.16;;;22.87;51.45
47366;BME280;33105;47.964;7.982;2023-07-30T13:20:10;96712.97;;;22.46;53.07
47366;BME280;33105;47.964;7.982;2023-07-30T13:23:22;96724.09;;;22.67;54.78
47366;BME280;33105;47.964;7.982;2023-07-30T13:26:36;96717.03;;;22.90;51.75
47366;BME280;33105;47.964;7.982;2023-07-30T13:29:55;96715.88;;;23.24;50.73
47366;BME280;33105;47.964;7.982;2023-07-30T13:33:51;96720.56;;;23.45;48.04
47366;BME280;33105;47.964;7.982;2023-07-30T13:37:51;96730.06;;;23.31;50.33
47366;BME280;33105;47.964;7.982;2023-07-30T13:41:09;96734.69;;;22.53;52.85
47366;BME280;33105;47.964;7.982;2023-07-30T13:44:48;96738.22;;;22.20;56.41
47366;BME280;33105;47.964;7.982;2023-07-30T13:47:55;96737.03;;;22.51;55.37
47366;BME280;33105;47.964;7.982;2023-07-30T13:51:46;96749.81;;;22.01;55.17
47366;BME280;33105;47.964;7.982;2023-07-30T13:54:47;96749.50;;;21.86;55.76
47366;BME280;33105;47.964;7.982;2023-07-30T13:57:49;96741.34;;;21.43;56.04
47366;BME280;33105;47.964;7.982;2023-07-30T14:00:53;96739.75;;;21.16;57.44
47366;BME280;33105;47.964;7.982;2023-07-30T14:03:57;96748.59;;;21.09;59.65
47366;BME280;33105;47.964;7.982;2023-07-30T14:07:02;96755.63;;;21.06;58.58
47366;BME280;33105;47.964;7.982;2023-07-30T14:10:04;96759.44;;;20.50;59.64
47366;BME280;33105;47.964;7.982;2023-07-30T14:13:05;96753.88;;;20.42;61.64
47366;BME280;33105;47.964;7.982;2023-07-30T14:16:07;96759.59;;;20.54;59.34
47366;BME280;33105;47.964;7.982;2023-07-30T14:19:10;96747.50;;;20.50;60.04
47366;BME280;33105;47.964;7.982;2023-07-30T14:22:12;96761.56;;;20.53;59.95
47366;BME280;33105;47.964;7.982;2023-07-30T14:25:16;96747.47;;;21.01;59.37
47366;BME280;33105;47.964;7.982;2023-07-30T14:28:19;96751.53;;;21.04;57.60
47366;BME280;33105;47.964;7.982;2023-07-30T14:31:24;96745.63;;;21.31;59.13
47366;BME280;33105;47.964;7.982;2023-07-30T14:34:33;96746.81;;;22.06;57.50
47366;BME280;33105;47.964;7.982;2023-07-30T14:38:01;96744.13;;;22.39;55.53
47366;BME280;33105;47.964;7.982;2023-07-30T14:45:25;96746.13;;;22.81;50.66
47366;BME280;33105;47.964;7.982;2023-07-30T14:49:01;96755.22;;;22.69;51.69
47366;BME280;33105;47.964;7.982;2023-07-30T14:53:10;96758.56;;;21.74;52.21
47366;BME280;33105;47.964;7.982;2023-07-30T14:56:19;96769.88;;;21.69;52.78
47366;BME280;33105;47.964;7.982;2023-07-30T14:59:21;96768.94;;;21.56;54.42
47366;BME280;33105;47.964;7.982;2023-07-30T15:02:31;96772.66;;;20.96;55.09
47366;BME280;33105;47.964;7.982;2023-07-30T15:05:33;96770.88;;;20.75;55.35
47366;BME280;33105;47.964;7.982;2023-07-30T15:08:35;96775.56;;;20.40;56.48
47366;BME280;33105;47.964;7.982;2023-07-30T15:11:37;96774.88;;;20.25;57.69
47366;BME280;33105;47.964;7.982;2023-07-30T15:14:38;96775.38;;;20.27;56.41
47366;BME280;33105;47.964;7.982;2023-07-30T15:17:42;96772.97;;;20.52;59.44
47366;BME280;33105;47.964;7.982;2023-07-30T15:20:44;96766.28;;;20.79;57.79
47366;BME280;33105;47.964;7.982;2023-07-30T15:23:49;96759.91;;;20.95;57.83
47366;BME280;33105;47.964;7.982;2023-07-30T15:26:54;96753.22;;;20.53;54.85
47366;BME280;33105;47.964;7.982;2023-07-30T15:29:58;96759.91;;;20.95;57.59
47366;BME280;33105;47.964;7.982;2023-07-30T15:33:03;96750.38;;;21.14;58.81
47366;BME280;33105;47.964;7.982;2023-07-30T15:36:09;96755.00;;;20.92;56.06
47366;BME280;33105;47.964;7.982;2023-07-30T15:39:12;96758.84;;;21.43;56.75
47366;BME280;33105;47.964;7.982;2023-07-30T15:42:19;96754.53;;;21.54;54.14
47366;BME280;33105;47.964;7.982;2023-07-30T15:45:24;96757.03;;;21.47;56.25
47366;BME280;33105;47.964;7.982;2023-07-30T15:48:29;96754.66;;;21.66;53.76
47366;BME280;33105;47.964;7.982;2023-07-30T15:51:32;96761.22;;;20.89;54.36
47366;BME280;33105;47.964;7.982;2023-07-30T15:54:35;96765.28;;;20.83;55.29
47366;BME280;33105;47.964;7.982;2023-07-30T15:57:37;96761.84;;;20.86;53.58
47366;BME280;33105;47.964;7.982;2023-07-30T16:00:39;96761.88;;;20.52;56.00
47366;BME280;33105;47.964;7.982;2023-07-30T16:03:43;96756.81;;;20.71;56.66
47366;BME280;33105;47.964;7.982;2023-07-30T16:06:44;96756.63;;;20.93;56.08
47366;BME280;33105;47.964;7.982;2023-07-30T16:09:49;96757.75;;;21.27;53.11
47366;BME280;33105;47.964;7.982;2023-07-30T16:12:50;96751.97;;;21.49;51.48
47366;BME280;33105;47.964;7.982;2023-07-30T16:15:54;96737.75;;;21.51;50.08
47366;BME280;33105;47.964;7.982;2023-07-30T16:18:56;96755.97;;;21.22;53.43
47366;BME280;33105;47.964;7.982;2023-07-30T16:21:59;96761.03;;;20.94;54.03
47366;BME280;33105;47.964;7.982;2023-07-30T16:25:01;96758.44;;;20.81;54.07
47366;BME280;33105;47.964;7.982;2023-07-30T16:28:03;96763.50;;;20.87;54.25
47366;BME280;33105;47.964;7.982;2023-07-30T16:31:05;96762.50;;;21.00;52.31
47366;BME280;33105;47.964;7.982;2023-07-30T16:34:07;96755.94;;;21.05;52.30
47366;BME280;33105;47.964;7.982;2023-07-30T16:37:09;96752.06;;;20.97;52.11
47366;BME280;33105;47.964;7.982;2023-07-30T16:40:11;96757.97;;;20.70;52.38
47366;BME280;33105;47.964;7.982;2023-07-30T16:43:13;96762.69;;;20.69;54.33
47366;BME280;33105;47.964;7.982;2023-07-30T16:46:15;96759.59;;;20.45;53.35
47366;BME280;33105;47.964;7.982;2023-07-30T16:49:17;96766.44;;;20.48;53.49
47366;BME280;33105;47.964;7.982;2023-07-30T16:52:20;96766.28;;;20.44;53.96